Houston, Illinois
Current Conditions -  °F | °C
As of 6:15 PM on Thursday 27 Nov 2014 (Local Time) from KSAR Reporting Station
Clear Clear  
Wind Chill: 27°   Ceiling: Unl
Heat Index: 27°   Visibility: 10mi
Dew Point: 22°   Wind: 0mph
Humidity: 79%   Direction: NA
Pressure: 30.49"   Gusts: NA
Location:  38.1133°N, 89.7153°W
Report Text: KSAR 280015Z AUTO 00000KT 10SM CLR M03/M06 A3049 RMK AO2 T10261058
Loading
Personal Weather Stations






























Interactive Weather Map New forecast layout! Learn more

10-Day Weather Forecast

Advertisements
Track Severe Weather on mobile